Salluit, Salluit Airport (CYZG)

NameSalluit Airport
CitySalluit
CountryCanada
ICAOCYZG
IATAYZG
Altitude226 m
CoordinatesGoogle Map
Live Air TrafficLiveATC.net
METARCYZG 232000Z 03007KT 15SM FEW200 14/04 A3007 RMK CI1 SLP198
2019-08-23 20:00:00 Wind: North-Northeast (30°) 3.6 m/s - Visibility: 24140.1 m - Temperature: 14 °C - Dew point: 4 °C - Humidity: 51.2% - Pressure: 1018.29 hPa

Sorry, no flights used the airport in this database.